RYR608L EGGP-EPSC
Flight info
| Callsign | RYR608L |
|---|---|
| Flight time | N/A |
| Altitude | 37000 |
| Route | BARTN1T BARTN L975 SONEX UL975 DESIG L603 LAMSO DCT BEDUM DCT HAM DCT BERIM L23 TORLO P46 FARCU FARCU1B |
| Aircraft | B38M/M-SDE1FGHILORVWXY/HB1 |
Departure
| Time | 2026-05-05 11:27 |
|---|---|
| Airport | Liverpool John Lennon Airport (EGGP) |
Arrival
| Time | N/A |
|---|---|
| Airport | Solidarity Szczecin–Goleniów Airport (EPSC) |
| Time | Latitude | Longitude | Altitude | Speed | Heading |
|---|---|---|---|---|---|
| 2026-05-05 10:56 | 53.33657 | -2.85586 | 92 ft | 0 kts | 356° |
| 2026-05-05 11:18 | 53.33647 | -2.85584 | 90 ft | 3 kts | 347° |
| 2026-05-05 11:18 | 53.33629 | -2.85579 | 88 ft | 3 kts | 357° |
| 2026-05-05 11:19 | 53.33615 | -2.85583 | 88 ft | 3 kts | 52° |
| 2026-05-05 11:19 | 53.33609 | -2.85609 | 89 ft | 2 kts | 85° |
| 2026-05-05 11:19 | 53.33609 | -2.85628 | 90 ft | 3 kts | 86° |
| 2026-05-05 11:19 | 53.33607 | -2.85655 | 88 ft | 1 kts | 86° |
| 2026-05-05 11:20 | 53.33607 | -2.85658 | 88 ft | 0 kts | 86° |
| 2026-05-05 11:22 | 53.33607 | -2.85654 | 88 ft | 4 kts | 86° |
| 2026-05-05 11:22 | 53.33609 | -2.85559 | 91 ft | 6 kts | 104° |
| 2026-05-05 11:23 | 53.33573 | -2.85511 | 90 ft | 8 kts | 169° |
| 2026-05-05 11:23 | 53.33524 | -2.85493 | 87 ft | 6 kts | 150° |
| 2026-05-05 11:23 | 53.33510 | -2.85410 | 91 ft | 9 kts | 85° |
| 2026-05-05 11:23 | 53.33516 | -2.85283 | 87 ft | 13 kts | 85° |
| 2026-05-05 11:24 | 53.33526 | -2.85114 | 90 ft | 17 kts | 89° |
| 2026-05-05 11:24 | 53.33533 | -2.84897 | 87 ft | 21 kts | 86° |
| 2026-05-05 11:24 | 53.33546 | -2.84628 | 82 ft | 25 kts | 85° |
| 2026-05-05 11:24 | 53.33561 | -2.84316 | 81 ft | 28 kts | 86° |
| 2026-05-05 11:25 | 53.33576 | -2.83987 | 81 ft | 29 kts | 85° |
| 2026-05-05 11:25 | 53.33587 | -2.83706 | 83 ft | 23 kts | 86° |
| 2026-05-05 11:25 | 53.33597 | -2.83469 | 93 ft | 13 kts | 85° |
| 2026-05-05 11:25 | 53.33574 | -2.83331 | 93 ft | 13 kts | 134° |
| 2026-05-05 11:26 | 53.33487 | -2.83290 | 88 ft | 14 kts | 175° |
| 2026-05-05 11:26 | 53.33444 | -2.83311 | 85 ft | 6 kts | 237° |
| 2026-05-05 11:26 | 53.33440 | -2.83333 | 85 ft | 0 kts | 262° |
| 2026-05-05 11:26 | 53.33424 | -2.83685 | 85 ft | 73 kts | 265° |
| 2026-05-05 11:27 | 53.33364 | -2.84988 | 83 ft | 149 kts | 265° |
| 2026-05-05 11:27 | 53.33263 | -2.86922 | 635 ft | 172 kts | 267° |
| 2026-05-05 11:27 | 53.33144 | -2.88925 | 1743 ft | 178 kts | 267° |
| 2026-05-05 11:27 | 53.33026 | -2.91079 | 2262 ft | 199 kts | 272° |
| 2026-05-05 11:28 | 53.33331 | -2.93455 | 2596 ft | 220 kts | 304° |
| 2026-05-05 11:28 | 53.34445 | -2.95079 | 3285 ft | 215 kts | 336° |
| 2026-05-05 11:28 | 53.35915 | -2.95318 | 3284 ft | 221 kts | 14° |
| 2026-05-05 11:28 | 53.37277 | -2.94087 | 3437 ft | 230 kts | 26° |
| 2026-05-05 11:29 | 53.38817 | -2.93165 | 3488 ft | 240 kts | 12° |
| 2026-05-05 11:29 | 53.40419 | -2.92261 | 3571 ft | 248 kts | 27° |
| 2026-05-05 11:29 | 53.41642 | -2.90203 | 3649 ft | 258 kts | 59° |
| 2026-05-05 11:29 | 53.42131 | -2.87314 | 4273 ft | 261 kts | 77° |
| 2026-05-05 11:30 | 53.42476 | -2.84274 | 5328 ft | 264 kts | 76° |
| 2026-05-05 11:30 | 53.42828 | -2.81221 | 6232 ft | 269 kts | 76° |
| 2026-05-05 11:30 | 53.43176 | -2.78157 | 7103 ft | 274 kts | 77° |
| 2026-05-05 11:30 | 53.43535 | -2.74953 | 7938 ft | 280 kts | 77° |
| 2026-05-05 11:31 | 53.43897 | -2.71706 | 8775 ft | 285 kts | 77° |
| 2026-05-05 11:31 | 53.44264 | -2.68393 | 9569 ft | 293 kts | 77° |
| 2026-05-05 11:31 | 53.44639 | -2.64997 | 10345 ft | 299 kts | 78° |
| 2026-05-05 11:31 | 53.45027 | -2.61469 | 10781 ft | 318 kts | 78° |
| 2026-05-05 11:32 | 53.45431 | -2.57794 | 11249 ft | 332 kts | 78° |
| 2026-05-05 11:32 | 53.45853 | -2.53926 | 11890 ft | 340 kts | 78° |
| 2026-05-05 11:32 | 53.46278 | -2.50025 | 12723 ft | 342 kts | 78° |
| 2026-05-05 11:32 | 53.46708 | -2.46065 | 13452 ft | 348 kts | 78° |
| 2026-05-05 11:33 | 53.47142 | -2.42060 | 14194 ft | 351 kts | 79° |
| 2026-05-05 11:33 | 53.47401 | -2.37974 | 14864 ft | 356 kts | 92° |
| 2026-05-05 11:33 | 53.46965 | -2.33867 | 15545 ft | 360 kts | 105° |
| 2026-05-05 11:33 | 53.46364 | -2.29772 | 16223 ft | 364 kts | 104° |
| 2026-05-05 11:34 | 53.45788 | -2.25620 | 16915 ft | 367 kts | 103° |
| 2026-05-05 11:34 | 53.45224 | -2.21471 | 17573 ft | 371 kts | 103° |
| 2026-05-05 11:34 | 53.44647 | -2.17168 | 18252 ft | 375 kts | 103° |
| 2026-05-05 11:34 | 53.44075 | -2.12881 | 18817 ft | 379 kts | 104° |
| 2026-05-05 11:35 | 53.43498 | -2.08554 | 19405 ft | 382 kts | 104° |
| 2026-05-05 11:35 | 53.42917 | -2.04213 | 19969 ft | 385 kts | 104° |
| 2026-05-05 11:35 | 53.42326 | -1.99803 | 20475 ft | 389 kts | 104° |
| 2026-05-05 11:35 | 53.41730 | -1.95367 | 21034 ft | 392 kts | 104° |
| 2026-05-05 11:36 | 53.41126 | -1.90890 | 21570 ft | 395 kts | 104° |
| 2026-05-05 11:36 | 53.40518 | -1.86394 | 22102 ft | 398 kts | 104° |
| 2026-05-05 11:36 | 53.39902 | -1.81855 | 22629 ft | 400 kts | 104° |
| 2026-05-05 11:36 | 53.39282 | -1.77304 | 23130 ft | 403 kts | 105° |
| 2026-05-05 11:37 | 53.38657 | -1.72717 | 23623 ft | 405 kts | 105° |
| 2026-05-05 11:37 | 53.38024 | -1.68091 | 24036 ft | 408 kts | 105° |
| 2026-05-05 11:37 | 53.37389 | -1.63472 | 24471 ft | 410 kts | 105° |
| 2026-05-05 11:37 | 53.36745 | -1.58794 | 24913 ft | 412 kts | 104° |
| 2026-05-05 11:38 | 53.36099 | -1.54127 | 25347 ft | 414 kts | 104° |
| 2026-05-05 11:38 | 53.35447 | -1.49427 | 25761 ft | 415 kts | 104° |
| 2026-05-05 11:38 | 53.34790 | -1.44697 | 26164 ft | 417 kts | 104° |
| 2026-05-05 11:38 | 53.34128 | -1.39956 | 26577 ft | 419 kts | 104° |
| 2026-05-05 11:39 | 53.33462 | -1.35196 | 26987 ft | 421 kts | 104° |
| 2026-05-05 11:39 | 53.32792 | -1.30431 | 27396 ft | 422 kts | 104° |
| 2026-05-05 11:39 | 53.32118 | -1.25650 | 27783 ft | 424 kts | 104° |
| 2026-05-05 11:39 | 53.31438 | -1.20834 | 28147 ft | 426 kts | 104° |
| 2026-05-05 11:40 | 53.30752 | -1.16004 | 28525 ft | 428 kts | 104° |
| 2026-05-05 11:40 | 53.30296 | -1.12796 | 28752 ft | 430 kts | 104° |
| 2026-05-05 11:40 | 53.29602 | -1.07922 | 29100 ft | 432 kts | 104° |
| 2026-05-05 11:40 | 53.28903 | -1.03031 | 29474 ft | 433 kts | 104° |
| 2026-05-05 11:41 | 53.28201 | -0.98138 | 29829 ft | 434 kts | 104° |
| 2026-05-05 11:41 | 53.27494 | -0.93224 | 30156 ft | 436 kts | 104° |
| 2026-05-05 11:41 | 53.26782 | -0.88293 | 30470 ft | 437 kts | 104° |
| 2026-05-05 11:41 | 53.26068 | -0.83365 | 30744 ft | 439 kts | 104° |
| 2026-05-05 11:42 | 53.25347 | -0.78407 | 31004 ft | 440 kts | 104° |
| 2026-05-05 11:42 | 53.24622 | -0.73432 | 31294 ft | 442 kts | 104° |
| 2026-05-05 11:42 | 53.23894 | -0.68461 | 31653 ft | 441 kts | 104° |
| 2026-05-05 11:42 | 53.23167 | -0.63501 | 31952 ft | 442 kts | 104° |
| 2026-05-05 11:43 | 53.22433 | -0.58514 | 32225 ft | 444 kts | 104° |
| 2026-05-05 11:43 | 53.21693 | -0.53501 | 32459 ft | 445 kts | 104° |
| 2026-05-05 11:43 | 53.20951 | -0.48490 | 32795 ft | 445 kts | 104° |